Time;durP1;ratioP1;P1;durP2;ratioP2;P2;SDS_P1;SDS_P2;PMS_P1;PMS_P2;Temp;Humidity;BMP_temperature;BMP_pressure;BME280_temperature;BME280_humidity;BME280_pressure;Samples;Min_cycle;Max_cycle;Signal;HPM_P1;HPM_P2
2021/06/07 00:00:57;;;;;;;41.47;28.00;;;;;;;15.73;100.00;96653.31;4950768;29;20897;-92
2021/06/07 00:03:23;;;;;;;42.70;27.77;;;;;;;15.81;100.00;96653.19;4957965;28;20491;-92
2021/06/07 00:05:57;;;;;;;47.93;31.23;;;;;;;15.81;100.00;96643.03;4956250;29;20436;-95
2021/06/07 00:08:24;;;;;;;40.73;27.00;;;;;;;15.88;100.00;96646.94;4949385;29;20427;-93
2021/06/07 00:10:52;;;;;;;42.23;27.80;;;;;;;15.88;100.00;96647.63;4949299;29;20435;-92
2021/06/07 00:13:20;;;;;;;40.67;29.87;;;;;;;15.72;100.00;96645.72;4950291;29;20527;-94
2021/06/07 00:15:48;;;;;;;49.00;31.07;;;;;;;15.55;100.00;96654.66;4948559;29;20977;-94
2021/06/07 00:18:17;;;;;;;45.00;30.87;;;;;;;15.62;100.00;96653.13;4946207;29;20518;-94
2021/06/07 00:20:47;;;;;;;45.33;31.10;;;;;;;15.68;100.00;96646.13;4942650;29;20499;-91
2021/06/07 00:23:16;;;;;;;47.00;29.70;;;;;;;15.63;100.00;96638.94;4940945;29;20487;-91
2021/06/07 00:25:46;;;;;;;47.57;28.70;;;;;;;15.70;100.00;96648.28;4941427;29;20499;-91
2021/06/07 00:28:13;;;;;;;46.23;29.90;;;;;;;15.73;100.00;96655.31;4942177;29;20460;-91
2021/06/07 00:30:40;;;;;;;47.97;28.57;;;;;;;15.68;100.00;96654.31;4941707;29;20497;-91
2021/06/07 00:33:07;;;;;;;52.63;31.63;;;;;;;15.64;100.00;96650.56;4941320;29;20520;-90
2021/06/07 00:35:34;;;;;;;51.03;32.33;;;;;;;15.60;100.00;96647.53;4941923;29;20476;-91
2021/06/07 00:38:00;;;;;;;46.43;30.70;;;;;;;15.58;100.00;96641.94;4940165;29;20459;-92
2021/06/07 00:40:29;;;;;;;50.00;29.97;;;;;;;15.57;100.00;96643.94;4940215;29;20490;-91
2021/06/07 00:42:57;;;;;;;61.77;33.07;;;;;;;15.57;100.00;96648.69;4940773;29;20487;-90
2021/06/07 00:45:27;;;;;;;51.53;31.07;;;;;;;15.48;100.00;96642.63;4941360;29;20486;-90
2021/06/07 00:47:57;;;;;;;49.70;31.07;;;;;;;15.60;100.00;96650.25;4940588;29;20841;-91
2021/06/07 00:50:33;;;;;;;44.47;30.03;;;;;;;15.53;100.00;96641.66;4940749;29;20460;-90
2021/06/07 00:53:06;;;;;;;52.67;33.27;;;;;;;15.40;100.00;96649.44;4941172;29;20459;-91
2021/06/07 00:55:38;;;;;;;57.57;34.07;;;;;;;15.39;100.00;96642.53;4940425;29;20472;-90
2021/06/07 00:58:07;;;;;;;45.63;30.63;;;;;;;15.51;100.00;96643.47;4941081;29;20490;-90
2021/06/07 01:00:35;;;;;;;55.67;32.17;;;;;;;15.50;100.00;96639.34;4940042;29;20486;-91
2021/06/07 01:03:02;;;;;;;50.13;31.50;;;;;;;15.53;100.00;96638.22;4940386;29;20992;-91
2021/06/07 01:05:29;;;;;;;47.37;30.23;;;;;;;15.55;100.00;96632.91;4940394;29;21013;-91
2021/06/07 01:07:56;;;;;;;51.50;30.03;;;;;;;15.58;100.00;96637.22;4939623;29;20543;-93
2021/06/07 01:10:23;;;;;;;46.63;30.47;;;;;;;15.54;100.00;96632.19;4939896;29;20440;-93
2021/06/07 01:12:51;;;;;;;45.40;30.17;;;;;;;15.61;100.00;96638.09;4942211;29;20874;-93
2021/06/07 01:15:18;;;;;;;50.53;29.67;;;;;;;15.56;100.00;96639.78;4942583;29;20466;-94
2021/06/07 01:17:44;;;;;;;49.97;29.83;;;;;;;15.52;100.00;96631.31;4943227;29;20549;-93
2021/06/07 01:20:13;;;;;;;49.30;30.43;;;;;;;15.47;100.00;96622.13;4942072;29;20512;-94
2021/06/07 01:22:41;;;;;;;45.57;30.20;;;;;;;15.51;100.00;96630.59;4942367;29;20566;-93
2021/06/07 01:25:12;;;;;;;50.73;30.90;;;;;;;15.35;100.00;96631.34;4942371;29;20523;-93
2021/06/07 01:27:39;;;;;;;54.97;32.00;;;;;;;15.39;100.00;96626.94;4941698;29;20527;-93
2021/06/07 01:30:11;;;;;;;50.83;31.57;;;;;;;15.45;100.00;96623.97;4941657;29;20459;-93
2021/06/07 01:32:38;;;;;;;64.70;33.13;;;;;;;15.41;100.00;96629.81;4942043;29;20448;-94
2021/06/07 01:35:08;;;;;;;49.47;30.37;;;;;;;15.40;100.00;96627.66;4942374;29;20482;-94
2021/06/07 01:37:34;;;;;;;51.80;31.60;;;;;;;15.48;100.00;96622.84;4942640;29;20528;-93
2021/06/07 01:40:04;;;;;;;57.27;32.10;;;;;;;15.42;100.00;96616.94;4941049;29;20539;-94
2021/06/07 01:42:30;;;;;;;49.30;30.63;;;;;;;15.39;100.00;96607.19;4941623;29;20551;-94
2021/06/07 01:44:56;;;;;;;53.20;30.17;;;;;;;15.46;100.00;96609.09;4940999;29;20976;-94
2021/06/07 01:47:22;;;;;;;54.13;30.93;;;;;;;15.45;100.00;96602.22;4940699;29;20515;-94
2021/06/07 01:49:48;;;;;;;56.83;31.83;;;;;;;15.47;100.00;96611.25;4940852;29;20952;-94
2021/06/07 01:52:14;;;;;;;47.30;28.40;;;;;;;15.46;100.00;96609.09;4940927;29;20476;-94
2021/06/07 01:54:41;;;;;;;49.90;29.80;;;;;;;15.53;100.00;96603.56;4941376;29;20534;-93
2021/06/07 01:57:09;;;;;;;54.73;31.07;;;;;;;15.46;100.00;96603.66;4948165;28;20479;-94
2021/06/07 01:59:38;;;;;;;60.13;32.10;;;;;;;15.45;100.00;96604.91;4941425;29;20500;-94
2021/06/07 02:02:06;;;;;;;49.67;30.10;;;;;;;15.44;100.00;96603.50;4940975;29;20458;-91
2021/06/07 02:05:14;;;;;;;54.30;31.00;;;;;;;15.37;100.00;96596.91;4939870;29;20468;-91
2021/06/07 02:07:44;;;;;;;47.77;29.83;;;;;;;15.45;100.00;96596.75;4940529;29;20539;-90
2021/06/07 02:10:12;;;;;;;59.17;31.00;;;;;;;15.44;100.00;96600.78;4940436;29;20447;-90
2021/06/07 02:12:40;;;;;;;56.07;32.27;;;;;;;15.36;100.00;96600.16;4941986;29;20464;-89
2021/06/07 02:15:08;;;;;;;57.07;32.23;;;;;;;15.36;100.00;96600.88;4942775;29;20503;-90
2021/06/07 02:17:34;;;;;;;52.23;30.23;;;;;;;15.40;100.00;96595.75;4959881;28;20436;-93
2021/06/07 02:20:01;;;;;;;54.17;28.83;;;;;;;15.45;100.00;96596.75;4960751;28;20428;-91
2021/06/07 02:22:27;;;;;;;52.57;30.70;;;;;;;15.41;100.00;96610.06;4960509;28;20476;-93
2021/06/07 02:24:53;;;;;;;59.30;32.20;;;;;;;15.43;100.00;96604.78;4960465;28;20478;-92
2021/06/07 02:27:20;;;;;;;63.43;28.90;;;;;;;15.31;100.00;96606.59;4960506;28;20447;-91
2021/06/07 02:29:49;;;;;;;55.30;30.87;;;;;;;15.23;100.00;96608.69;4942698;29;20464;-91
2021/06/07 02:32:15;;;;;;;52.63;32.57;;;;;;;15.21;100.00;96606.53;4939758;29;20452;-90
2021/06/07 02:34:42;;;;;;;60.43;33.07;;;;;;;15.24;100.00;96605.41;4939696;29;20502;-91
2021/06/07 02:37:08;;;;;;;50.03;31.33;;;;;;;15.27;100.00;96614.44;4939362;29;20475;-90
2021/06/07 02:39:35;;;;;;;56.53;32.17;;;;;;;15.31;100.00;96617.47;4938947;29;21020;-90
2021/06/07 02:42:01;;;;;;;51.47;32.60;;;;;;;15.25;100.00;96611.56;4940346;29;20448;-90
2021/06/07 02:44:31;;;;;;;66.77;33.43;;;;;;;15.30;100.00;96614.03;4939813;29;20457;-91
2021/06/07 02:47:07;;;;;;;61.10;32.00;;;;;;;15.32;100.00;96611.44;4939983;29;20561;-91
2021/06/07 02:49:34;;;;;;;57.33;33.90;;;;;;;15.31;100.00;96612.03;4939628;29;20455;-91
2021/06/07 02:52:01;;;;;;;55.90;32.40;;;;;;;15.30;100.00;96611.31;4942005;29;20443;-91
2021/06/07 02:54:50;;;;;;;58.33;34.60;;;;;;;15.05;100.00;96610.75;4943445;29;20478;-92
2021/06/07 02:57:17;;;;;;;65.43;34.77;;;;;;;15.09;100.00;96607.63;4943506;29;20455;-91
2021/06/07 03:02:47;;;;;;;65.33;35.80;;;;;;;15.14;100.00;96612.06;4942670;29;20559;-91
2021/06/07 03:05:16;;;;;;;67.70;35.47;;;;;;;15.20;100.00;96609.81;4944385;29;20856;-91
2021/06/07 03:07:42;;;;;;;62.00;33.03;;;;;;;15.27;100.00;96614.44;4944032;29;20447;-93
2021/06/07 03:10:10;;;;;;;59.87;31.83;;;;;;;15.31;100.00;96615.47;4945651;29;20539;-94
2021/06/07 03:12:37;;;;;;;60.07;32.10;;;;;;;15.23;100.00;96612.13;4946138;29;20476;-93
2021/06/07 03:15:04;;;;;;;54.40;31.30;;;;;;;15.33;100.00;96612.19;4945270;29;20468;-92
2021/06/07 03:17:30;;;;;;;62.93;32.70;;;;;;;15.30;100.00;96614.03;4945177;29;20491;-94
2021/06/07 03:19:58;;;;;;;60.47;32.13;;;;;;;15.19;100.00;96611.13;4945321;29;20500;-94
2021/06/07 03:22:24;;;;;;;67.73;32.97;;;;;;;15.22;100.00;96613.44;4945433;29;20582;-94
2021/06/07 03:24:51;;;;;;;67.17;35.57;;;;;;;15.28;100.00;96611.16;4945717;29;20551;-94
2021/06/07 03:27:18;;;;;;;66.70;36.00;;;;;;;15.16;100.00;96612.94;4946390;29;20490;-93
2021/06/07 03:29:45;;;;;;;63.30;34.53;;;;;;;15.19;100.00;96616.56;4947480;29;20490;-94
2021/06/07 03:32:11;;;;;;;63.60;32.37;;;;;;;15.25;100.00;96612.31;4945315;29;20431;-94
2021/06/07 03:34:37;;;;;;;67.70;33.37;;;;;;;15.26;100.00;96616.44;4946297;29;20474;-94
2021/06/07 03:37:05;;;;;;;70.27;35.67;;;;;;;15.25;100.00;96614.28;4945196;29;20456;-94
2021/06/07 03:39:31;;;;;;;64.57;36.03;;;;;;;15.20;100.00;96615.97;4945237;29;20965;-93
2021/06/07 03:41:57;;;;;;;62.83;35.20;;;;;;;15.23;100.00;96620.28;4944181;29;20461;-93
2021/06/07 03:44:24;;;;;;;64.83;34.80;;;;;;;15.25;100.00;96615.03;4945328;29;20980;-94
2021/06/07 03:46:50;;;;;;;61.90;34.47;;;;;;;15.25;100.00;96614.28;4945484;29;20580;-93
2021/06/07 03:49:16;;;;;;;75.60;37.43;;;;;;;15.18;100.00;96612.41;4946303;29;20837;-93
2021/06/07 03:51:43;;;;;;;74.43;37.37;;;;;;;15.16;100.00;96612.25;4951839;28;20424;-90
2021/06/07 03:54:10;;;;;;;69.27;36.50;;;;;;;15.24;100.00;96605.41;4962612;28;20483;-91
2021/06/07 03:56:38;;;;;;;63.70;35.90;;;;;;;15.17;100.00;96616.38;4944014;29;20529;-91
2021/06/07 03:59:04;;;;;;;67.67;38.00;;;;;;;15.23;100.00;96612.13;4943929;29;20417;-91
2021/06/07 04:01:31;;;;;;;65.83;35.17;;;;;;;15.19;100.00;96602.97;4943418;29;20432;-90
2021/06/07 04:03:59;;;;;;;62.27;35.10;;;;;;;15.13;100.00;96616.09;4944481;29;20495;-91
2021/06/07 04:06:29;;;;;;;71.00;35.20;;;;;;;15.15;100.00;96608.09;4944348;29;20480;-91
2021/06/07 04:08:57;;;;;;;64.43;35.83;;;;;;;15.14;100.00;96609.34;4943851;29;20459;-90
2021/06/07 04:11:26;;;;;;;61.07;34.60;;;;;;;15.18;100.00;96604.97;4944198;29;20448;-91
2021/06/07 04:13:53;;;;;;;65.03;36.07;;;;;;;15.10;100.00;96609.06;4943448;29;20459;-92
2021/06/07 04:16:20;;;;;;;73.20;37.13;;;;;;;15.14;100.00;96607.38;4951725;29;20447;-92
2021/06/07 04:18:46;;;;;;;70.30;35.63;;;;;;;15.07;100.00;96608.19;4962239;28;20436;-90
2021/06/07 04:21:13;;;;;;;60.63;33.23;;;;;;;15.15;100.00;96608.81;4962002;28;20436;-92
2021/06/07 04:23:40;;;;;;;74.83;36.10;;;;;;;15.10;100.00;96606.34;4961982;28;20490;-93
2021/06/07 04:26:08;;;;;;;65.63;34.57;;;;;;;15.07;100.00;96610.19;4961718;28;20443;-91
2021/06/07 04:28:39;;;;;;;80.70;37.23;;;;;;;15.08;100.00;96611.63;4961451;28;20439;-93
2021/06/07 04:31:08;;;;;;;77.90;37.50;;;;;;;14.94;100.00;96605.84;4946453;29;20534;-91
2021/06/07 04:33:34;;;;;;;64.30;33.60;;;;;;;15.07;100.00;96610.91;4945359;29;20443;-91
2021/06/07 04:36:00;;;;;;;71.93;35.00;;;;;;;15.13;100.00;96607.94;4944515;29;20540;-91
2021/06/07 04:38:27;;;;;;;64.37;34.50;;;;;;;15.15;100.00;96603.38;4943767;29;20476;-90
2021/06/07 04:40:53;;;;;;;66.93;34.07;;;;;;;15.12;100.00;96595.63;4942946;29;20455;-91
2021/06/07 04:43:20;;;;;;;76.17;33.40;;;;;;;15.11;100.00;96605.06;4951585;29;20479;-91
2021/06/07 04:45:48;;;;;;;70.07;35.40;;;;;;;15.01;100.00;96602.28;4961154;28;20527;-92
2021/06/07 04:48:15;;;;;;;96.67;37.27;;;;;;;14.99;100.00;96607.56;4960857;28;20439;-91
2021/06/07 04:50:42;;;;;;;93.17;37.67;;;;;;;14.93;100.00;96599.69;4960364;28;20471;-92
2021/06/07 04:53:11;;;;;;;78.50;34.83;;;;;;;15.02;100.00;96599.00;4955455;28;20417;-92
2021/06/07 04:55:40;;;;;;;64.87;36.37;;;;;;;15.07;100.00;96604.75;4943329;29;20474;-92
2021/06/07 04:58:09;;;;;;;80.53;36.17;;;;;;;15.06;100.00;96592.44;4942212;29;20535;-92
2021/06/07 05:00:36;;;;;;;65.63;31.70;;;;;;;15.09;100.00;96594.75;4942919;29;20468;-92
2021/06/07 05:03:03;;;;;;;74.97;35.07;;;;;;;15.04;100.00;96587.56;4943280;29;20496;-93
2021/06/07 05:05:30;;;;;;;97.83;36.40;;;;;;;15.02;100.00;96601.72;4944192;29;20504;-92
2021/06/07 05:07:56;;;;;;;234.77;42.90;;;;;;;14.98;100.00;96598.69;4942428;29;20443;-93
2021/06/07 05:10:22;;;;;;;110.77;33.87;;;;;;;15.03;100.00;96597.72;4944729;29;20485;-91
2021/06/07 05:12:49;;;;;;;89.53;33.50;;;;;;;15.08;100.00;96590.59;4944585;29;20472;-91
2021/06/07 05:15:16;;;;;;;94.83;33.33;;;;;;;15.13;100.00;96597.75;4960049;28;20470;-94
2021/06/07 05:17:43;;;;;;;76.20;32.53;;;;;;;15.17;100.00;96603.50;4961226;28;20439;-94
2021/06/07 05:20:18;;;;;;;105.03;34.30;;;;;;;15.11;100.00;96603.06;4960856;28;20435;-92
2021/06/07 05:22:45;;;;;;;95.90;33.77;;;;;;;15.18;100.00;96601.53;4957353;28;20459;-92
2021/06/07 05:25:13;;;;;;;158.20;37.57;;;;;;;15.08;100.00;96611.63;4960698;28;20467;-94
2021/06/07 05:27:39;;;;;;;79.57;34.97;;;;;;;15.12;100.00;96607.22;4960437;28;20444;-94
2021/06/07 05:30:08;;;;;;;77.67;32.87;;;;;;;15.18;100.00;96607.69;4959975;28;20509;-94
2021/06/07 05:32:34;;;;;;;251.50;42.40;;;;;;;15.08;100.00;96614.34;4954720;28;20451;-92
2021/06/07 05:35:01;;;;;;;80.43;31.50;;;;;;;15.13;100.00;96618.81;4945185;29;20498;-92
2021/06/07 05:37:29;;;;;;;66.87;31.43;;;;;;;15.16;100.00;96620.41;4945439;29;20909;-93
2021/06/07 05:39:55;;;;;;;121.83;35.07;;;;;;;15.11;100.00;96611.22;4943448;29;20452;-93
2021/06/07 05:42:21;;;;;;;140.93;31.97;;;;;;;15.11;100.00;96621.38;4945915;29;21046;-92
2021/06/07 05:44:47;;;;;;;69.83;32.23;;;;;;;15.11;100.00;96621.38;4945096;29;20554;-92
2021/06/07 05:47:13;;;;;;;98.17;34.67;;;;;;;15.08;100.00;96625.94;4944467;29;20611;-93
2021/06/07 05:49:39;;;;;;;69.80;31.57;;;;;;;15.23;100.00;96616.84;4946690;29;20575;-93
2021/06/07 05:52:07;;;;;;;82.53;33.97;;;;;;;15.20;100.00;96626.84;4945475;29;20451;-93
2021/06/07 05:54:35;;;;;;;77.77;31.77;;;;;;;15.21;100.00;96624.84;4945480;29;20535;-92
2021/06/07 05:57:06;;;;;;;143.80;33.53;;;;;;;15.27;100.00;96623.31;4951052;29;20450;-92
2021/06/07 05:59:35;;;;;;;131.80;34.70;;;;;;;15.24;100.00;96626.44;4957982;28;20440;-92
2021/06/07 06:02:02;;;;;;;59.03;30.40;;;;;;;15.32;100.00;96625.03;4954945;28;20482;-90
2021/06/07 06:04:28;;;;;;;102.20;31.33;;;;;;;15.22;100.00;96629.03;4952362;29;20479;-92
2021/06/07 06:06:55;;;;;;;62.77;29.73;;;;;;;15.25;100.00;96625.91;4952331;29;20443;-92
2021/06/07 06:09:23;;;;;;;73.17;30.00;;;;;;;15.36;100.00;96630.81;4952436;29;20448;-92
2021/06/07 06:11:51;;;;;;;170.60;35.37;;;;;;;15.32;100.00;96635.19;4949639;29;20465;-93
2021/06/07 07:12:16;;;;;;;42.40;19.20;;;;;;;16.05;100.00;96666.59;5011987;28;20468;-91
2021/06/07 07:14:43;;;;;;;30.47;19.70;;;;;;;15.87;100.00;96659.81;5006455;28;20493;-92
2021/06/07 07:17:09;;;;;;;34.27;19.20;;;;;;;15.93;100.00;96662.97;5007684;28;20433;-91
2021/06/07 07:19:38;;;;;;;30.30;19.70;;;;;;;15.88;100.00;96653.06;5008349;28;20551;-92
2021/06/07 07:22:07;;;;;;;25.70;16.50;;;;;;;15.87;100.00;96659.09;5008823;28;20449;-92
2021/06/07 07:24:34;;;;;;;28.80;16.60;;;;;;;15.91;100.00;96662.13;5007741;28;20492;-92
2021/06/07 07:27:00;;;;;;;31.00;18.40;;;;;;;16.02;100.00;96664.28;5009095;28;20524;-91
2021/06/07 07:29:31;;;;;;;25.40;15.20;;;;;;;15.91;100.00;96667.56;5008573;28;20499;-92
2021/06/07 07:31:58;;;;;;;24.60;15.50;;;;;;;15.96;100.00;96664.56;5008710;28;20656;-91
2021/06/07 07:34:24;;;;;;;25.73;15.30;;;;;;;15.96;100.00;96670.00;5007318;28;20453;-91
2021/06/07 07:36:50;;;;;;;28.33;15.50;;;;;;;15.85;100.00;96673.25;5006417;28;20437;-94
2021/06/07 07:39:16;;;;;;;21.90;14.00;;;;;;;15.91;100.00;96662.13;5010939;28;20946;-91
2021/06/07 07:41:43;;;;;;;28.00;14.97;;;;;;;15.66;100.00;96673.22;5007429;28;20457;-91
2021/06/07 07:44:09;;;;;;;20.93;14.07;;;;;;;15.78;100.00;96671.38;5006045;28;20481;-91
2021/06/07 07:46:36;;;;;;;20.20;13.40;;;;;;;15.79;100.00;96677.53;5005729;28;20524;-91
2021/06/07 07:49:03;;;;;;;25.20;16.17;;;;;;;15.85;100.00;96678.00;5004925;28;20453;-91
2021/06/07 07:51:29;;;;;;;25.10;15.60;;;;;;;15.85;100.00;96675.97;5007403;28;20441;-92
2021/06/07 07:53:55;;;;;;;28.50;16.00;;;;;;;15.89;100.00;96673.56;5006405;28;20819;-92
2021/06/07 07:56:21;;;;;;;26.73;15.07;;;;;;;15.82;100.00;96670.97;5005989;28;20465;-92
2021/06/07 07:58:48;;;;;;;26.43;16.60;;;;;;;15.81;100.00;96683.13;5008231;28;20492;-92
2021/06/07 08:01:14;;;;;;;25.70;15.93;;;;;;;15.77;100.00;96667.22;5010287;28;20441;-92
2021/06/07 08:03:42;;;;;;;24.20;16.07;;;;;;;15.75;100.00;96679.97;5009202;28;20487;-91
2021/06/07 08:06:08;;;;;;;37.67;16.83;;;;;;;15.90;100.00;96677.00;5009751;28;20468;-92
2021/06/07 08:08:35;;;;;;;26.00;15.63;;;;;;;16.06;100.00;96681.66;5009417;28;20449;-92
2021/06/07 08:11:01;;;;;;;193.03;25.97;;;;;;;16.02;100.00;96678.63;5009669;28;20453;-92
2021/06/07 08:13:31;;;;;;;46.73;19.17;;;;;;;16.15;100.00;96684.97;5008065;28;20445;-92
2021/06/07 08:15:57;;;;;;;70.30;20.40;;;;;;;16.28;100.00;96679.13;5007436;28;21013;-93
2021/06/07 08:18:23;;;;;;;74.20;20.23;;;;;;;16.26;100.00;96676.22;5013761;28;20451;-93
2021/06/07 08:21:01;;;;;;;35.57;18.73;;;;;;;16.26;100.00;96678.94;5019815;28;20456;-91
2021/06/07 08:23:27;;;;;;;56.40;19.40;;;;;;;16.23;100.00;96672.66;5019757;28;20483;-92
2021/06/07 08:25:54;;;;;;;27.83;18.23;;;;;;;16.33;100.00;96675.38;5019455;28;20465;-93
2021/06/07 08:28:20;;;;;;;47.77;19.83;;;;;;;16.21;100.00;96669.78;5006900;28;20790;-92
2021/06/07 08:30:47;;;;;;;28.93;17.37;;;;;;;16.28;100.00;96677.13;5007975;28;20528;-92
2021/06/07 08:33:13;;;;;;;23.77;16.00;;;;;;;16.12;100.00;96683.38;5007877;28;20509;-92
2021/06/07 08:35:41;;;;;;;20.53;14.37;;;;;;;16.18;100.00;96676.38;5008543;28;20460;-92
2021/06/07 08:38:09;;;;;;;25.10;15.40;;;;;;;16.24;100.00;96676.81;5008340;28;20456;-92
2021/06/07 08:40:39;;;;;;;19.97;14.10;;;;;;;16.36;100.00;96671.53;5013058;28;20417;-94
2021/06/07 08:43:05;;;;;;;25.13;15.63;;;;;;;16.52;100.00;96672.69;5006492;28;20504;-91
2021/06/07 08:45:32;;;;;;;22.03;14.80;;;;;;;16.42;100.00;96678.13;5009820;28;20473;-92
2021/06/07 08:47:58;;;;;;;22.07;14.57;;;;;;;16.55;100.00;96677.03;5008133;28;20449;-91
2021/06/07 08:50:27;;;;;;;22.87;14.83;;;;;;;16.59;100.00;96680.03;5010558;28;20520;-92
2021/06/07 08:52:53;;;;;;;21.87;14.47;;;;;;;16.55;100.00;96679.75;5013173;28;20460;-90
2021/06/07 08:55:24;;;;;;;22.93;15.40;;;;;;;16.62;100.00;96681.63;5011592;28;20500;-92
2021/06/07 08:57:52;;;;;;;22.50;15.67;;;;;;;16.35;100.00;96681.00;5008400;28;20487;-92
2021/06/07 09:00:20;;;;;;;51.83;16.83;;;;;;;16.35;100.00;96676.25;5011048;28;20441;-92
2021/06/07 09:02:49;;;;;;;27.20;17.30;;;;;;;16.34;100.00;96680.28;5010183;28;20461;-93
2021/06/07 09:05:18;;;;;;;25.03;15.03;;;;;;;16.42;100.00;96691.75;5005616;28;20481;-92
2021/06/07 09:07:53;;;;;;;25.77;16.67;;;;;;;16.39;100.00;96684.72;5006662;28;20442;-92
2021/06/07 09:10:22;;;;;;;38.20;17.83;;;;;;;16.31;100.00;96684.13;5005032;28;20491;-92
2021/06/07 09:12:53;;;;;;;29.03;17.67;;;;;;;16.38;100.00;96691.44;5004169;28;20457;-92
2021/06/07 09:15:35;;;;;;;32.57;18.60;;;;;;;16.55;100.00;96688.63;5006718;28;20516;-91
2021/06/07 09:18:03;;;;;;;28.47;17.40;;;;;;;16.62;100.00;96689.78;5004478;28;20437;-92
2021/06/07 09:20:31;;;;;;;30.73;18.13;;;;;;;16.67;100.00;96694.22;5005154;28;20452;-92
2021/06/07 09:22:59;;;;;;;32.60;17.90;;;;;;;16.71;100.00;96688.34;5009007;28;20854;-92
2021/06/07 09:25:29;;;;;;;28.47;18.93;;;;;;;16.82;100.00;96688.50;5016050;28;20476;-91
2021/06/07 09:28:07;;;;;;;34.20;21.07;;;;;;;16.71;100.00;96689.09;5012558;28;20445;-92
2021/06/07 09:30:42;;;;;;;32.67;20.37;;;;;;;16.85;100.00;96687.34;5008587;28;20445;-92
2021/06/07 09:33:17;;;;;;;33.33;20.30;;;;;;;16.79;100.00;96689.66;5003762;28;20515;-91
2021/06/07 09:35:45;;;;;;;32.60;21.00;;;;;;;16.76;100.00;96692.81;5003923;28;20448;-91
2021/06/07 09:38:11;;;;;;;36.83;22.67;;;;;;;16.69;100.00;96693.69;5002876;28;20980;-91
2021/06/07 09:40:39;;;;;;;31.97;20.83;;;;;;;16.60;100.00;96687.63;5004954;28;20460;-91
2021/06/07 09:43:06;;;;;;;42.33;23.20;;;;;;;16.68;100.00;96690.22;5004264;28;21326;-92
2021/06/07 09:45:44;;;;;;;41.80;23.90;;;;;;;16.63;100.00;96693.97;5006322;28;20434;-91
2021/06/07 09:48:12;;;;;;;78.90;24.20;;;;;;;16.72;100.00;96700.72;5015271;28;20421;-92
2021/06/07 09:50:53;;;;;;;37.40;23.53;;;;;;;16.72;100.00;96703.44;5017265;28;20445;-92
2021/06/07 09:53:49;;;;;;;54.07;24.10;;;;;;;16.82;100.00;96704.84;5011502;28;20448;-93
2021/06/07 09:56:16;;;;;;;36.93;22.17;;;;;;;16.77;100.00;96702.41;4967338;28;20472;-93
2021/06/07 09:58:45;;;;;;;33.00;22.50;;;;;;;16.70;100.00;96704.00;5007031;28;20449;-92
2021/06/07 10:01:14;;;;;;;36.13;23.00;;;;;;;16.79;100.00;96695.09;5004170;28;20555;-91
2021/06/07 10:03:43;;;;;;;34.37;23.87;;;;;;;16.89;100.00;96698.53;5004506;28;20476;-91
2021/06/07 10:06:25;;;;;;;35.43;24.03;;;;;;;17.01;100.00;96710.31;5002694;28;20527;-92
2021/06/07 10:08:57;;;;;;;35.13;22.87;;;;;;;17.11;100.00;96708.28;5002519;28;20429;-92
2021/06/07 10:11:26;;;;;;;34.10;22.80;;;;;;;16.99;100.00;96701.28;5002111;28;20476;-92
2021/06/07 10:14:08;;;;;;;33.60;23.33;;;;;;;17.11;100.00;96704.84;5002915;28;20449;-92
2021/06/07 10:16:35;;;;;;;33.03;23.20;;;;;;;17.17;100.00;96704.53;5002364;28;20410;-93
2021/06/07 10:19:05;;;;;;;31.70;22.43;;;;;;;17.34;100.00;96705.09;5002266;28;20440;-91
2021/06/07 10:21:32;;;;;;;35.73;22.67;;;;;;;17.48;100.00;96705.34;5002268;28;20433;-92
2021/06/07 10:23:59;;;;;;;33.40;23.20;;;;;;;17.30;100.00;96702.09;5000719;28;20508;-92
2021/06/07 10:26:27;;;;;;;36.27;22.83;;;;;;;17.35;100.00;96700.38;5001926;28;20465;-92
2021/06/07 10:28:55;;;;;;;38.20;23.37;;;;;;;17.34;100.00;96704.38;5001416;28;20464;-92
2021/06/07 10:31:24;;;;;;;38.50;25.40;;;;;;;17.41;100.00;96698.78;5000572;28;20461;-91
2021/06/07 10:33:58;;;;;;;37.37;26.20;;;;;;;17.32;100.00;96696.78;5001728;28;20476;-93
2021/06/07 10:36:35;;;;;;;36.67;23.97;;;;;;;17.52;100.00;96700.19;5001244;28;20471;-92
2021/06/07 10:39:22;;;;;;;32.60;22.67;;;;;;;17.45;100.00;96704.50;5000313;28;20551;-92
2021/06/07 10:42:21;;;;;;;30.93;21.57;;;;;;;17.60;100.00;96698.75;5000289;28;20536;-92
2021/06/07 10:44:50;;;;;;;37.93;21.83;;;;;;;17.63;100.00;96705.78;5001079;28;20508;-92
2021/06/07 10:47:20;;;;;;;29.23;22.43;;;;;;;17.50;100.00;96703.50;5000796;28;20448;-90
2021/06/07 10:49:49;;;;;;;34.83;24.03;;;;;;;17.36;100.00;96710.69;5001853;28;20449;-92
2021/06/07 10:52:17;;;;;;;33.00;23.47;;;;;;;17.29;100.00;96708.13;5001985;28;20445;-92
2021/06/07 10:54:45;;;;;;;35.20;23.83;;;;;;;17.40;100.00;96704.81;5000501;28;20476;-91
2021/06/07 10:57:34;;;;;;;40.30;25.10;;;;;;;17.22;100.00;96707.00;5004332;28;20430;-90
2021/06/07 11:00:04;;;;;;;39.20;25.20;;;;;;;17.30;100.00;96704.81;5004136;28;20418;-92
2021/06/07 11:02:35;;;;;;;33.70;22.40;;;;;;;17.46;100.00;96705.22;5001566;28;20437;-91
2021/06/07 11:05:05;;;;;;;35.77;23.83;;;;;;;17.37;100.00;96708.69;5000585;28;20487;-92
2021/06/07 11:07:32;;;;;;;29.80;22.40;;;;;;;17.45;100.00;96711.97;5001090;28;20501;-92
2021/06/07 11:10:22;;;;;;;27.53;21.97;;;;;;;17.48;100.00;96705.34;5000027;28;21063;-92
2021/06/07 11:12:53;;;;;;;37.30;24.17;;;;;;;17.60;100.00;96708.97;5011852;28;20505;-92
2021/06/07 11:15:21;;;;;;;37.30;24.73;;;;;;;17.57;100.00;96708.09;5021240;28;20527;-92
2021/06/07 11:17:49;;;;;;;30.47;22.93;;;;;;;17.56;100.00;96714.13;5021123;28;20433;-92
2021/06/07 11:20:37;;;;;;;33.57;23.03;;;;;;;17.64;100.00;96711.94;5021317;28;20445;-92
2021/06/07 11:23:05;;;;;;;35.83;21.97;;;;;;;17.79;100.00;96711.63;5020934;28;20512;-91
2021/06/07 11:25:43;;;;;;;32.13;22.67;;;;;;;17.65;100.00;96710.66;5003851;28;20485;-93
2021/06/07 11:28:29;;;;;;;30.97;22.70;;;;;;;17.67;100.00;96710.78;5002688;28;20441;-92
2021/06/07 11:30:56;;;;;;;42.17;22.60;;;;;;;17.67;100.00;96704.63;5003740;28;20409;-93
2021/06/07 11:33:22;;;;;;;37.87;25.10;;;;;;;17.62;100.00;96703.63;5003172;28;20548;-91
2021/06/07 11:35:56;;;;;;;37.53;25.60;;;;;;;17.55;100.00;96704.50;5004781;28;20449;-90
2021/06/07 11:38:30;;;;;;;35.43;23.27;;;;;;;17.57;100.00;96707.38;5005488;28;20440;-91
2021/06/07 11:40:59;;;;;;;33.60;21.67;;;;;;;17.47;100.00;96699.19;5006292;28;20460;-91
2021/06/07 11:43:55;;;;;;;27.43;21.20;;;;;;;17.65;100.00;96703.19;5003748;28;20852;-91
2021/06/07 11:46:58;;;;;;;29.17;20.33;;;;;;;17.76;100.00;96698.44;5014812;28;20465;-92
2021/06/07 11:49:26;;;;;;;42.10;23.87;;;;;;;17.82;100.00;96698.84;5020084;28;20436;-91
2021/06/07 11:52:05;;;;;;;28.30;21.30;;;;;;;17.86;100.00;96694.34;5020008;28;20457;-91
2021/06/07 11:54:53;;;;;;;30.07;22.13;;;;;;;17.90;100.00;96700.09;5019738;28;20465;-91
2021/06/07 11:57:21;;;;;;;33.67;23.40;;;;;;;17.66;100.00;96698.47;5020102;28;20466;-92
2021/06/07 12:00:00;;;;;;;33.23;23.17;;;;;;;17.71;100.00;96696.69;5012213;28;20445;-91
2021/06/07 12:02:27;;;;;;;35.37;25.60;;;;;;;17.85;100.00;96703.84;5008149;28;20449;-91
2021/06/07 12:05:04;;;;;;;31.00;22.97;;;;;;;17.87;100.00;96684.13;5004044;28;20481;-91
2021/06/07 12:07:34;;;;;;;31.87;23.33;;;;;;;17.98;100.00;96697.19;5003630;28;20917;-91
2021/06/07 12:10:00;;;;;;;35.20;25.10;;;;;;;17.86;100.00;96693.63;5003047;28;20512;-90
2021/06/07 12:12:27;;;;;;;30.73;23.70;;;;;;;18.00;100.00;96692.56;5011053;28;20434;-92
2021/06/07 12:14:55;;;;;;;33.73;24.13;;;;;;;17.92;100.00;96699.47;5019410;28;20479;-91
2021/06/07 12:17:23;;;;;;;29.43;21.83;;;;;;;17.91;100.00;96693.34;5019349;28;20461;-90
2021/06/07 12:19:56;;;;;;;36.30;22.90;;;;;;;18.03;100.00;96698.88;5019498;28;20437;-91